sensor_id;sensor_type;location;lat;lon;timestamp;temperature;humidity
20929;DHT22;21895;47.072;15.132;2023-07-08T00:00:54;16.10;99.90
20929;DHT22;21895;47.072;15.132;2023-07-08T00:03:20;16.00;99.90
20929;DHT22;21895;47.072;15.132;2023-07-08T00:05:55;15.80;99.90
20929;DHT22;21895;47.072;15.132;2023-07-08T00:08:22;15.60;99.90
20929;DHT22;21895;47.072;15.132;2023-07-08T00:10:49;15.50;99.90
20929;DHT22;21895;47.072;15.132;2023-07-08T00:13:15;15.40;99.90
20929;DHT22;21895;47.072;15.132;2023-07-08T00:15:44;15.40;99.90
20929;DHT22;21895;47.072;15.132;2023-07-08T00:18:15;15.40;99.90
20929;DHT22;21895;47.072;15.132;2023-07-08T00:20:48;15.40;99.90
20929;DHT22;21895;47.072;15.132;2023-07-08T00:23:16;15.30;99.90
20929;DHT22;21895;47.072;15.132;2023-07-08T00:25:42;15.30;99.90
20929;DHT22;21895;47.072;15.132;2023-07-08T00:28:15;15.20;99.90
20929;DHT22;21895;47.072;15.132;2023-07-08T00:30:43;15.20;99.90
20929;DHT22;21895;47.072;15.132;2023-07-08T00:33:10;15.30;99.90
20929;DHT22;21895;47.072;15.132;2023-07-08T00:35:44;15.40;99.90
20929;DHT22;21895;47.072;15.132;2023-07-08T00:38:26;15.30;99.90
20929;DHT22;21895;47.072;15.132;2023-07-08T00:41:54;15.20;99.90
20929;DHT22;21895;47.072;15.132;2023-07-08T00:44:21;15.10;99.90
20929;DHT22;21895;47.072;15.132;2023-07-08T00:47:07;15.10;99.90
20929;DHT22;21895;47.072;15.132;2023-07-08T00:49:50;15.00;99.90
20929;DHT22;21895;47.072;15.132;2023-07-08T00:52:27;15.00;99.90
20929;DHT22;21895;47.072;15.132;2023-07-08T00:54:58;14.90;99.90
20929;DHT22;21895;47.072;15.132;2023-07-08T00:57:34;14.90;99.90
20929;DHT22;21895;47.072;15.132;2023-07-08T01:00:14;14.70;99.90
20929;DHT22;21895;47.072;15.132;2023-07-08T01:02:49;14.80;99.90
20929;DHT22;21895;47.072;15.132;2023-07-08T01:05:25;14.80;99.90
20929;DHT22;21895;47.072;15.132;2023-07-08T01:07:58;14.80;99.90
20929;DHT22;21895;47.072;15.132;2023-07-08T01:10:52;14.80;99.90
20929;DHT22;21895;47.072;15.132;2023-07-08T01:13:21;14.80;99.90
20929;DHT22;21895;47.072;15.132;2023-07-08T01:15:48;14.70;99.90
20929;DHT22;21895;47.072;15.132;2023-07-08T01:18:17;14.80;99.90
20929;DHT22;21895;47.072;15.132;2023-07-08T01:20:50;14.80;99.90
20929;DHT22;21895;47.072;15.132;2023-07-08T01:23:22;14.80;99.90
20929;DHT22;21895;47.072;15.132;2023-07-08T01:25:49;14.70;99.90
20929;DHT22;21895;47.072;15.132;2023-07-08T01:28:17;14.60;99.90
20929;DHT22;21895;47.072;15.132;2023-07-08T01:30:44;14.60;99.90
20929;DHT22;21895;47.072;15.132;2023-07-08T01:33:18;14.50;99.90
20929;DHT22;21895;47.072;15.132;2023-07-08T01:35:51;14.50;99.90
20929;DHT22;21895;47.072;15.132;2023-07-08T01:38:22;14.50;99.90
20929;DHT22;21895;47.072;15.132;2023-07-08T01:40:56;14.50;99.90
20929;DHT22;21895;47.072;15.132;2023-07-08T01:43:24;14.50;99.90
20929;DHT22;21895;47.072;15.132;2023-07-08T01:45:51;14.60;99.90
20929;DHT22;21895;47.072;15.132;2023-07-08T01:48:21;14.70;99.90
20929;DHT22;21895;47.072;15.132;2023-07-08T01:50:54;14.80;99.90
20929;DHT22;21895;47.072;15.132;2023-07-08T01:53:36;15.00;99.90
20929;DHT22;21895;47.072;15.132;2023-07-08T01:56:06;15.10;99.90
20929;DHT22;21895;47.072;15.132;2023-07-08T01:58:33;15.10;99.90
20929;DHT22;21895;47.072;15.132;2023-07-08T02:01:00;15.00;99.90
20929;DHT22;21895;47.072;15.132;2023-07-08T02:03:27;14.90;99.90
20929;DHT22;21895;47.072;15.132;2023-07-08T02:05:54;14.90;99.90
20929;DHT22;21895;47.072;15.132;2023-07-08T02:08:21;14.90;99.90
20929;DHT22;21895;47.072;15.132;2023-07-08T02:10:54;14.90;99.90
20929;DHT22;21895;47.072;15.132;2023-07-08T02:13:24;14.80;99.90
20929;DHT22;21895;47.072;15.132;2023-07-08T02:15:51;14.60;99.90
20929;DHT22;21895;47.072;15.132;2023-07-08T02:18:18;14.50;99.90
20929;DHT22;21895;47.072;15.132;2023-07-08T02:20:45;14.50;99.90
20929;DHT22;21895;47.072;15.132;2023-07-08T02:23:13;14.40;99.90
20929;DHT22;21895;47.072;15.132;2023-07-08T02:25:41;14.40;99.90
20929;DHT22;21895;47.072;15.132;2023-07-08T02:28:07;14.40;99.90
20929;DHT22;21895;47.072;15.132;2023-07-08T02:30:34;14.60;99.90
20929;DHT22;21895;47.072;15.132;2023-07-08T02:33:00;14.80;99.90
20929;DHT22;21895;47.072;15.132;2023-07-08T02:35:30;14.90;99.90
20929;DHT22;21895;47.072;15.132;2023-07-08T02:37:57;14.90;99.90
20929;DHT22;21895;47.072;15.132;2023-07-08T02:40:24;14.80;99.90
20929;DHT22;21895;47.072;15.132;2023-07-08T02:42:52;14.60;99.90
20929;DHT22;21895;47.072;15.132;2023-07-08T02:45:18;14.60;99.90
20929;DHT22;21895;47.072;15.132;2023-07-08T02:47:45;14.60;99.90
20929;DHT22;21895;47.072;15.132;2023-07-08T02:50:14;14.60;99.90
20929;DHT22;21895;47.072;15.132;2023-07-08T02:52:46;14.70;99.90
20929;DHT22;21895;47.072;15.132;2023-07-08T02:55:12;14.90;99.90
20929;DHT22;21895;47.072;15.132;2023-07-08T02:57:39;15.00;99.90
20929;DHT22;21895;47.072;15.132;2023-07-08T03:00:06;14.90;99.90
20929;DHT22;21895;47.072;15.132;2023-07-08T03:02:33;15.00;99.90
20929;DHT22;21895;47.072;15.132;2023-07-08T03:04:59;15.10;99.90
20929;DHT22;21895;47.072;15.132;2023-07-08T03:07:26;15.00;99.90
20929;DHT22;21895;47.072;15.132;2023-07-08T03:09:53;15.10;99.90
20929;DHT22;21895;47.072;15.132;2023-07-08T03:12:20;15.10;99.90
20929;DHT22;21895;47.072;15.132;2023-07-08T03:14:46;15.00;99.90
20929;DHT22;21895;47.072;15.132;2023-07-08T03:17:13;15.00;99.90
20929;DHT22;21895;47.072;15.132;2023-07-08T03:19:40;14.90;99.90
20929;DHT22;21895;47.072;15.132;2023-07-08T03:22:07;14.90;99.90
20929;DHT22;21895;47.072;15.132;2023-07-08T03:24:33;15.10;99.90
20929;DHT22;21895;47.072;15.132;2023-07-08T03:27:00;15.10;99.90
20929;DHT22;21895;47.072;15.132;2023-07-08T03:29:31;15.10;99.90
20929;DHT22;21895;47.072;15.132;2023-07-08T03:31:57;15.00;99.90
20929;DHT22;21895;47.072;15.132;2023-07-08T03:34:24;15.00;99.90
20929;DHT22;21895;47.072;15.132;2023-07-08T03:36:51;15.00;99.90
20929;DHT22;21895;47.072;15.132;2023-07-08T03:39:23;15.00;99.90
20929;DHT22;21895;47.072;15.132;2023-07-08T03:41:52;15.00;99.90
20929;DHT22;21895;47.072;15.132;2023-07-08T03:44:19;14.90;99.90
20929;DHT22;21895;47.072;15.132;2023-07-08T03:46:48;15.00;99.90
20929;DHT22;21895;47.072;15.132;2023-07-08T03:49:20;15.00;99.90
20929;DHT22;21895;47.072;15.132;2023-07-08T03:51:52;15.10;99.90
20929;DHT22;21895;47.072;15.132;2023-07-08T03:54:21;15.30;99.90
20929;DHT22;21895;47.072;15.132;2023-07-08T03:56:49;15.40;99.90
20929;DHT22;21895;47.072;15.132;2023-07-08T03:59:16;15.40;99.90
20929;DHT22;21895;47.072;15.132;2023-07-08T04:01:43;15.50;99.90
20929;DHT22;21895;47.072;15.132;2023-07-08T04:04:13;15.40;99.90
20929;DHT22;21895;47.072;15.132;2023-07-08T04:06:40;15.30;99.90
20929;DHT22;21895;47.072;15.132;2023-07-08T04:09:07;15.30;99.90
20929;DHT22;21895;47.072;15.132;2023-07-08T04:11:34;15.30;99.90
20929;DHT22;21895;47.072;15.132;2023-07-08T04:14:00;15.30;99.90
20929;DHT22;21895;47.072;15.132;2023-07-08T04:16:31;15.20;99.90
20929;DHT22;21895;47.072;15.132;2023-07-08T04:19:08;15.20;99.90
20929;DHT22;21895;47.072;15.132;2023-07-08T04:21:40;15.30;99.90
20929;DHT22;21895;47.072;15.132;2023-07-08T04:24:10;15.40;99.90
20929;DHT22;21895;47.072;15.132;2023-07-08T04:26:37;15.40;99.90
20929;DHT22;21895;47.072;15.132;2023-07-08T04:29:11;15.50;99.90
20929;DHT22;21895;47.072;15.132;2023-07-08T04:31:39;15.60;99.90
20929;DHT22;21895;47.072;15.132;2023-07-08T04:34:05;15.70;99.90
20929;DHT22;21895;47.072;15.132;2023-07-08T04:36:32;15.80;99.90
20929;DHT22;21895;47.072;15.132;2023-07-08T04:39:00;15.80;99.90
20929;DHT22;21895;47.072;15.132;2023-07-08T04:41:28;15.80;99.90
20929;DHT22;21895;47.072;15.132;2023-07-08T04:43:55;15.90;99.90
20929;DHT22;21895;47.072;15.132;2023-07-08T04:46:34;16.10;99.90
20929;DHT22;21895;47.072;15.132;2023-07-08T04:49:06;16.20;99.90
20929;DHT22;21895;47.072;15.132;2023-07-08T04:51:33;16.30;99.90
20929;DHT22;21895;47.072;15.132;2023-07-08T04:53:59;16.50;99.90
20929;DHT22;21895;47.072;15.132;2023-07-08T04:56:38;16.80;99.90
20929;DHT22;21895;47.072;15.132;2023-07-08T04:59:20;17.40;99.90
20929;DHT22;21895;47.072;15.132;2023-07-08T05:01:49;17.90;99.90
20929;DHT22;21895;47.072;15.132;2023-07-08T05:04:19;17.90;99.90
20929;DHT22;21895;47.072;15.132;2023-07-08T05:06:47;18.10;99.90
20929;DHT22;21895;47.072;15.132;2023-07-08T05:09:14;18.40;99.90
20929;DHT22;21895;47.072;15.132;2023-07-08T05:11:43;18.60;99.90
20929;DHT22;21895;47.072;15.132;2023-07-08T05:14:12;19.00;99.90
20929;DHT22;21895;47.072;15.132;2023-07-08T05:16:40;19.20;99.90
20929;DHT22;21895;47.072;15.132;2023-07-08T05:19:06;19.50;99.90
20929;DHT22;21895;47.072;15.132;2023-07-08T05:21:33;19.90;99.90
20929;DHT22;21895;47.072;15.132;2023-07-08T05:24:01;20.20;99.90
20929;DHT22;21895;47.072;15.132;2023-07-08T05:26:29;20.10;99.90
20929;DHT22;21895;47.072;15.132;2023-07-08T05:28:55;20.20;99.90
20929;DHT22;21895;47.072;15.132;2023-07-08T05:31:22;20.50;99.90
20929;DHT22;21895;47.072;15.132;2023-07-08T05:34:04;20.80;99.90
20929;DHT22;21895;47.072;15.132;2023-07-08T05:36:30;20.80;99.90
20929;DHT22;21895;47.072;15.132;2023-07-08T05:38:57;21.00;99.90
20929;DHT22;21895;47.072;15.132;2023-07-08T05:41:24;21.00;99.90
20929;DHT22;21895;47.072;15.132;2023-07-08T05:43:50;21.10;99.90
20929;DHT22;21895;47.072;15.132;2023-07-08T05:46:17;21.40;99.90
20929;DHT22;21895;47.072;15.132;2023-07-08T05:48:43;21.70;99.90
20929;DHT22;21895;47.072;15.132;2023-07-08T05:51:10;21.90;99.90
20929;DHT22;21895;47.072;15.132;2023-07-08T05:53:36;22.10;99.90
20929;DHT22;21895;47.072;15.132;2023-07-08T05:56:03;22.30;99.90
20929;DHT22;21895;47.072;15.132;2023-07-08T05:58:30;22.40;99.90
20929;DHT22;21895;47.072;15.132;2023-07-08T06:00:57;22.40;99.90
20929;DHT22;21895;47.072;15.132;2023-07-08T06:03:25;22.50;99.90
20929;DHT22;21895;47.072;15.132;2023-07-08T06:05:52;22.50;99.90
20929;DHT22;21895;47.072;15.132;2023-07-08T06:08:19;22.50;99.90
20929;DHT22;21895;47.072;15.132;2023-07-08T06:10:46;22.70;99.00
20929;DHT22;21895;47.072;15.132;2023-07-08T06:13:13;22.90;99.80
20929;DHT22;21895;47.072;15.132;2023-07-08T06:15:41;23.20;99.10
20929;DHT22;21895;47.072;15.132;2023-07-08T06:18:08;23.30;99.40
20929;DHT22;21895;47.072;15.132;2023-07-08T06:20:34;23.40;98.50
20929;DHT22;21895;47.072;15.132;2023-07-08T06:23:01;23.50;98.40
20929;DHT22;21895;47.072;15.132;2023-07-08T06:25:28;23.60;98.10
20929;DHT22;21895;47.072;15.132;2023-07-08T06:27:55;23.70;97.80
20929;DHT22;21895;47.072;15.132;2023-07-08T06:30:21;23.70;98.10
20929;DHT22;21895;47.072;15.132;2023-07-08T06:32:48;23.80;98.20
20929;DHT22;21895;47.072;15.132;2023-07-08T06:35:15;24.10;98.60
20929;DHT22;21895;47.072;15.132;2023-07-08T06:37:41;24.30;97.70
20929;DHT22;21895;47.072;15.132;2023-07-08T06:40:08;24.40;97.90
20929;DHT22;21895;47.072;15.132;2023-07-08T06:42:35;24.50;97.10
20929;DHT22;21895;47.072;15.132;2023-07-08T06:45:02;24.40;96.30
20929;DHT22;21895;47.072;15.132;2023-07-08T06:47:29;24.50;96.40
20929;DHT22;21895;47.072;15.132;2023-07-08T06:49:56;24.70;96.10
20929;DHT22;21895;47.072;15.132;2023-07-08T06:52:25;24.70;96.50
20929;DHT22;21895;47.072;15.132;2023-07-08T06:54:52;25.00;97.20
20929;DHT22;21895;47.072;15.132;2023-07-08T06:57:18;25.20;96.60
20929;DHT22;21895;47.072;15.132;2023-07-08T06:59:45;25.40;97.80
20929;DHT22;21895;47.072;15.132;2023-07-08T07:02:11;25.50;97.40
20929;DHT22;21895;47.072;15.132;2023-07-08T07:04:39;25.60;97.20
20929;DHT22;21895;47.072;15.132;2023-07-08T07:07:05;25.60;97.50
20929;DHT22;21895;47.072;15.132;2023-07-08T07:09:33;25.50;97.00
20929;DHT22;21895;47.072;15.132;2023-07-08T07:11:59;25.50;95.70
20929;DHT22;21895;47.072;15.132;2023-07-08T07:14:26;25.60;95.70
20929;DHT22;21895;47.072;15.132;2023-07-08T07:16:56;25.70;96.20
20929;DHT22;21895;47.072;15.132;2023-07-08T07:19:25;26.10;95.00
20929;DHT22;21895;47.072;15.132;2023-07-08T07:21:52;26.30;94.90
20929;DHT22;21895;47.072;15.132;2023-07-08T07:24:19;26.30;94.70
20929;DHT22;21895;47.072;15.132;2023-07-08T07:26:45;26.30;95.10
20929;DHT22;21895;47.072;15.132;2023-07-08T07:29:15;26.50;93.70
20929;DHT22;21895;47.072;15.132;2023-07-08T07:31:43;26.70;93.50
20929;DHT22;21895;47.072;15.132;2023-07-08T07:34:10;26.80;93.00
20929;DHT22;21895;47.072;15.132;2023-07-08T07:36:37;27.00;92.70
20929;DHT22;21895;47.072;15.132;2023-07-08T07:39:04;27.10;92.40
20929;DHT22;21895;47.072;15.132;2023-07-08T07:41:31;27.20;93.10
20929;DHT22;21895;47.072;15.132;2023-07-08T07:43:57;27.20;92.50
20929;DHT22;21895;47.072;15.132;2023-07-08T07:46:24;27.20;92.30
20929;DHT22;21895;47.072;15.132;2023-07-08T07:48:51;27.30;91.40
20929;DHT22;21895;47.072;15.132;2023-07-08T07:51:17;27.40;90.90
20929;DHT22;21895;47.072;15.132;2023-07-08T07:53:44;27.40;90.40
20929;DHT22;21895;47.072;15.132;2023-07-08T07:56:10;27.30;90.60
20929;DHT22;21895;47.072;15.132;2023-07-08T07:58:37;27.20;89.30
20929;DHT22;21895;47.072;15.132;2023-07-08T08:01:03;27.30;91.20
20929;DHT22;21895;47.072;15.132;2023-07-08T08:03:31;27.30;89.80
20929;DHT22;21895;47.072;15.132;2023-07-08T08:05:57;27.50;90.30
20929;DHT22;21895;47.072;15.132;2023-07-08T08:08:24;27.50;89.10
20929;DHT22;21895;47.072;15.132;2023-07-08T08:10:51;27.60;88.10
20929;DHT22;21895;47.072;15.132;2023-07-08T08:13:17;27.70;87.80
20929;DHT22;21895;47.072;15.132;2023-07-08T08:15:44;27.70;88.60
20929;DHT22;21895;47.072;15.132;2023-07-08T08:18:11;27.70;87.60
20929;DHT22;21895;47.072;15.132;2023-07-08T08:20:38;27.60;88.90
20929;DHT22;21895;47.072;15.132;2023-07-08T08:23:05;27.80;89.00
20929;DHT22;21895;47.072;15.132;2023-07-08T08:25:32;27.90;89.20
20929;DHT22;21895;47.072;15.132;2023-07-08T08:27:59;28.00;90.00
20929;DHT22;21895;47.072;15.132;2023-07-08T08:30:25;28.00;85.00
20929;DHT22;21895;47.072;15.132;2023-07-08T08:32:52;28.00;89.00
20929;DHT22;21895;47.072;15.132;2023-07-08T08:35:19;27.90;86.00
20929;DHT22;21895;47.072;15.132;2023-07-08T08:37:46;28.00;88.40
20929;DHT22;21895;47.072;15.132;2023-07-08T08:40:15;27.90;88.60
20929;DHT22;21895;47.072;15.132;2023-07-08T08:42:59;27.90;88.60
20929;DHT22;21895;47.072;15.132;2023-07-08T08:45:32;28.10;90.00
20929;DHT22;21895;47.072;15.132;2023-07-08T08:48:14;28.20;89.30
20929;DHT22;21895;47.072;15.132;2023-07-08T08:51:09;28.20;87.60
20929;DHT22;21895;47.072;15.132;2023-07-08T08:53:40;28.30;87.50
20929;DHT22;21895;47.072;15.132;2023-07-08T09:00:09;28.40;86.60
20929;DHT22;21895;47.072;15.132;2023-07-08T09:03:10;28.20;85.80
20929;DHT22;21895;47.072;15.132;2023-07-08T09:05:45;28.30;85.90
20929;DHT22;21895;47.072;15.132;2023-07-08T09:08:16;28.30;87.90
20929;DHT22;21895;47.072;15.132;2023-07-08T09:11:00;28.30;85.90
20929;DHT22;21895;47.072;15.132;2023-07-08T09:13:36;28.40;86.00
20929;DHT22;21895;47.072;15.132;2023-07-08T09:18:31;28.40;86.70
20929;DHT22;21895;47.072;15.132;2023-07-08T09:21:25;28.50;84.50
20929;DHT22;21895;47.072;15.132;2023-07-08T09:24:01;28.50;83.80
20929;DHT22;21895;47.072;15.132;2023-07-08T09:26:35;28.40;84.10
20929;DHT22;21895;47.072;15.132;2023-07-08T09:29:08;28.50;85.00
20929;DHT22;21895;47.072;15.132;2023-07-08T09:31:38;28.50;84.30
20929;DHT22;21895;47.072;15.132;2023-07-08T09:34:16;28.60;81.30
20929;DHT22;21895;47.072;15.132;2023-07-08T09:36:50;28.70;82.90
20929;DHT22;21895;47.072;15.132;2023-07-08T09:39:19;28.50;79.10
20929;DHT22;21895;47.072;15.132;2023-07-08T09:41:48;28.50;82.30
20929;DHT22;21895;47.072;15.132;2023-07-08T09:44:26;28.50;82.90
20929;DHT22;21895;47.072;15.132;2023-07-08T09:46:59;28.20;82.40
20929;DHT22;21895;47.072;15.132;2023-07-08T09:49:34;28.20;82.80
20929;DHT22;21895;47.072;15.132;2023-07-08T09:52:02;28.30;82.30
20929;DHT22;21895;47.072;15.132;2023-07-08T09:54:30;28.40;82.80
20929;DHT22;21895;47.072;15.132;2023-07-08T09:57:10;28.60;83.20
20929;DHT22;21895;47.072;15.132;2023-07-08T09:59:59;28.80;83.70
20929;DHT22;21895;47.072;15.132;2023-07-08T10:02:57;29.10;84.10
20929;DHT22;21895;47.072;15.132;2023-07-08T10:05:32;29.30;82.80
20929;DHT22;21895;47.072;15.132;2023-07-08T10:08:18;29.20;80.50
20929;DHT22;21895;47.072;15.132;2023-07-08T10:10:50;28.80;81.90
20929;DHT22;21895;47.072;15.132;2023-07-08T10:13:41;28.70;83.30
20929;DHT22;21895;47.072;15.132;2023-07-08T10:16:31;28.60;83.70
20929;DHT22;21895;47.072;15.132;2023-07-08T10:19:00;28.80;82.00
20929;DHT22;21895;47.072;15.132;2023-07-08T10:22:01;28.80;83.00
20929;DHT22;21895;47.072;15.132;2023-07-08T10:27:35;28.90;84.80
20929;DHT22;21895;47.072;15.132;2023-07-08T10:30:35;28.80;82.80
20929;DHT22;21895;47.072;15.132;2023-07-08T10:35:30;28.80;82.60
20929;DHT22;21895;47.072;15.132;2023-07-08T10:45:59;28.50;83.00
20929;DHT22;21895;47.072;15.132;2023-07-08T10:49:28;28.90;83.50
20929;DHT22;21895;47.072;15.132;2023-07-08T10:54:49;29.20;82.50
20929;DHT22;21895;47.072;15.132;2023-07-08T10:59:01;29.20;82.40
20929;DHT22;21895;47.072;15.132;2023-07-08T11:02:23;29.20;82.00
20929;DHT22;21895;47.072;15.132;2023-07-08T11:09:59;29.20;84.00
20929;DHT22;21895;47.072;15.132;2023-07-08T11:12:59;28.90;83.30
20929;DHT22;21895;47.072;15.132;2023-07-08T11:16:05;29.00;83.80
20929;DHT22;21895;47.072;15.132;2023-07-08T11:21:51;29.10;80.00
20929;DHT22;21895;47.072;15.132;2023-07-08T11:25:03;29.70;81.00
20929;DHT22;21895;47.072;15.132;2023-07-08T11:27:42;29.90;81.50
20929;DHT22;21895;47.072;15.132;2023-07-08T11:30:17;30.30;79.90
20929;DHT22;21895;47.072;15.132;2023-07-08T11:32:52;30.30;79.00
20929;DHT22;21895;47.072;15.132;2023-07-08T11:35:47;30.40;80.20
20929;DHT22;21895;47.072;15.132;2023-07-08T11:38:19;30.30;79.90
20929;DHT22;21895;47.072;15.132;2023-07-08T11:41:31;30.10;84.00
20929;DHT22;21895;47.072;15.132;2023-07-08T11:44:03;29.80;81.10
20929;DHT22;21895;47.072;15.132;2023-07-08T11:46:33;29.70;79.50
20929;DHT22;21895;47.072;15.132;2023-07-08T11:49:12;29.50;81.80
20929;DHT22;21895;47.072;15.132;2023-07-08T11:51:44;29.50;83.40
20929;DHT22;21895;47.072;15.132;2023-07-08T11:54:34;29.40;82.90
20929;DHT22;21895;47.072;15.132;2023-07-08T11:57:06;29.30;83.50
20929;DHT22;21895;47.072;15.132;2023-07-08T11:59:42;29.40;81.90
20929;DHT22;21895;47.072;15.132;2023-07-08T12:02:20;29.30;82.00
20929;DHT22;21895;47.072;15.132;2023-07-08T12:05:13;29.30;84.00
20929;DHT22;21895;47.072;15.132;2023-07-08T12:07:55;29.40;81.10
20929;DHT22;21895;47.072;15.132;2023-07-08T12:10:38;29.40;80.70
20929;DHT22;21895;47.072;15.132;2023-07-08T12:13:19;29.40;81.00
20929;DHT22;21895;47.072;15.132;2023-07-08T12:15:49;29.30;79.70
20929;DHT22;21895;47.072;15.132;2023-07-08T12:18:24;29.20;80.00
20929;DHT22;21895;47.072;15.132;2023-07-08T12:20:58;29.20;81.80
20929;DHT22;21895;47.072;15.132;2023-07-08T12:23:28;29.10;80.50
20929;DHT22;21895;47.072;15.132;2023-07-08T12:25:56;29.10;80.60
20929;DHT22;21895;47.072;15.132;2023-07-08T12:28:24;29.10;81.50
20929;DHT22;21895;47.072;15.132;2023-07-08T12:30:51;28.90;80.30
20929;DHT22;21895;47.072;15.132;2023-07-08T12:33:42;28.90;81.80
20929;DHT22;21895;47.072;15.132;2023-07-08T12:36:14;29.00;80.00
20929;DHT22;21895;47.072;15.132;2023-07-08T12:38:52;28.90;80.70
20929;DHT22;21895;47.072;15.132;2023-07-08T12:41:33;29.00;82.80
20929;DHT22;21895;47.072;15.132;2023-07-08T12:44:13;29.00;82.90
20929;DHT22;21895;47.072;15.132;2023-07-08T12:46:47;29.00;82.10
20929;DHT22;21895;47.072;15.132;2023-07-08T12:49:16;28.90;81.50
20929;DHT22;21895;47.072;15.132;2023-07-08T12:51:45;28.90;81.60
20929;DHT22;21895;47.072;15.132;2023-07-08T12:54:13;28.90;81.50
20929;DHT22;21895;47.072;15.132;2023-07-08T12:56:43;29.00;83.10
20929;DHT22;21895;47.072;15.132;2023-07-08T12:59:19;29.20;83.50
20929;DHT22;21895;47.072;15.132;2023-07-08T13:01:49;29.20;80.80
20929;DHT22;21895;47.072;15.132;2023-07-08T13:04:18;29.20;82.00
20929;DHT22;21895;47.072;15.132;2023-07-08T13:06:46;29.20;81.30
20929;DHT22;21895;47.072;15.132;2023-07-08T13:09:40;29.20;81.10
20929;DHT22;21895;47.072;15.132;2023-07-08T13:12:18;29.10;84.00
20929;DHT22;21895;47.072;15.132;2023-07-08T13:14:52;29.20;80.30
20929;DHT22;21895;47.072;15.132;2023-07-08T13:17:21;29.10;81.30
20929;DHT22;21895;47.072;15.132;2023-07-08T13:19:49;29.10;82.90
20929;DHT22;21895;47.072;15.132;2023-07-08T13:22:18;29.20;81.70
20929;DHT22;21895;47.072;15.132;2023-07-08T13:24:46;29.30;81.60
20929;DHT22;21895;47.072;15.132;2023-07-08T13:27:22;29.40;83.30
20929;DHT22;21895;47.072;15.132;2023-07-08T13:29:54;29.30;80.50
20929;DHT22;21895;47.072;15.132;2023-07-08T13:32:31;29.20;81.70
20929;DHT22;21895;47.072;15.132;2023-07-08T13:34:58;29.30;81.00
20929;DHT22;21895;47.072;15.132;2023-07-08T13:37:25;29.30;82.90
20929;DHT22;21895;47.072;15.132;2023-07-08T13:39:53;29.30;80.40
20929;DHT22;21895;47.072;15.132;2023-07-08T13:42:20;29.50;83.50
20929;DHT22;21895;47.072;15.132;2023-07-08T13:44:48;29.60;81.80
20929;DHT22;21895;47.072;15.132;2023-07-08T13:47:26;29.60;80.40
20929;DHT22;21895;47.072;15.132;2023-07-08T13:50:39;29.70;82.30
20929;DHT22;21895;47.072;15.132;2023-07-08T13:53:27;29.80;82.70
20929;DHT22;21895;47.072;15.132;2023-07-08T13:56:24;29.70;81.40
20929;DHT22;21895;47.072;15.132;2023-07-08T13:59:07;29.60;82.60
20929;DHT22;21895;47.072;15.132;2023-07-08T14:01:39;29.50;81.60
20929;DHT22;21895;47.072;15.132;2023-07-08T14:04:06;29.50;81.80
20929;DHT22;21895;47.072;15.132;2023-07-08T14:06:36;29.40;83.20
20929;DHT22;21895;47.072;15.132;2023-07-08T14:09:12;29.40;82.30
20929;DHT22;21895;47.072;15.132;2023-07-08T14:11:40;29.40;82.40
20929;DHT22;21895;47.072;15.132;2023-07-08T14:14:08;29.30;81.70
20929;DHT22;21895;47.072;15.132;2023-07-08T14:16:40;29.30;82.50
20929;DHT22;21895;47.072;15.132;2023-07-08T14:19:14;29.30;81.80
20929;DHT22;21895;47.072;15.132;2023-07-08T14:21:45;29.40;82.20
20929;DHT22;21895;47.072;15.132;2023-07-08T14:24:14;29.30;83.40
20929;DHT22;21895;47.072;15.132;2023-07-08T14:26:43;29.30;81.50
20929;DHT22;21895;47.072;15.132;2023-07-08T14:29:11;29.40;81.90
20929;DHT22;21895;47.072;15.132;2023-07-08T14:31:39;29.20;83.70
20929;DHT22;21895;47.072;15.132;2023-07-08T14:34:08;29.20;82.60
20929;DHT22;21895;47.072;15.132;2023-07-08T14:36:44;29.10;84.40
20929;DHT22;21895;47.072;15.132;2023-07-08T14:39:15;29.10;84.40
20929;DHT22;21895;47.072;15.132;2023-07-08T14:41:45;29.10;83.90
20929;DHT22;21895;47.072;15.132;2023-07-08T14:44:52;29.00;85.70
20929;DHT22;21895;47.072;15.132;2023-07-08T14:47:19;29.00;85.50
20929;DHT22;21895;47.072;15.132;2023-07-08T14:49:46;29.10;84.50
20929;DHT22;21895;47.072;15.132;2023-07-08T14:52:13;29.10;84.40
20929;DHT22;21895;47.072;15.132;2023-07-08T14:54:40;29.10;83.20
20929;DHT22;21895;47.072;15.132;2023-07-08T14:57:07;29.00;83.20
20929;DHT22;21895;47.072;15.132;2023-07-08T14:59:38;28.90;83.60
20929;DHT22;21895;47.072;15.132;2023-07-08T15:02:20;28.90;84.10
20929;DHT22;21895;47.072;15.132;2023-07-08T15:04:47;28.90;84.90
20929;DHT22;21895;47.072;15.132;2023-07-08T15:07:14;28.90;85.40
20929;DHT22;21895;47.072;15.132;2023-07-08T15:09:40;28.90;85.30
20929;DHT22;21895;47.072;15.132;2023-07-08T15:12:10;28.90;84.60
20929;DHT22;21895;47.072;15.132;2023-07-08T15:14:38;28.80;85.00
20929;DHT22;21895;47.072;15.132;2023-07-08T15:17:12;28.80;84.10
20929;DHT22;21895;47.072;15.132;2023-07-08T15:19:43;28.70;86.30
20929;DHT22;21895;47.072;15.132;2023-07-08T15:22:11;28.70;84.50
20929;DHT22;21895;47.072;15.132;2023-07-08T15:24:37;28.60;84.50
20929;DHT22;21895;47.072;15.132;2023-07-08T15:27:04;28.60;86.70
20929;DHT22;21895;47.072;15.132;2023-07-08T15:29:32;28.60;85.80
20929;DHT22;21895;47.072;15.132;2023-07-08T15:31:59;28.70;84.60
20929;DHT22;21895;47.072;15.132;2023-07-08T15:34:26;28.60;84.40
20929;DHT22;21895;47.072;15.132;2023-07-08T15:36:53;28.60;85.80
20929;DHT22;21895;47.072;15.132;2023-07-08T15:39:20;28.50;84.60
20929;DHT22;21895;47.072;15.132;2023-07-08T15:41:47;28.60;84.90
20929;DHT22;21895;47.072;15.132;2023-07-08T15:44:14;28.50;86.30
20929;DHT22;21895;47.072;15.132;2023-07-08T15:46:44;28.50;85.10
20929;DHT22;21895;47.072;15.132;2023-07-08T15:49:16;28.30;85.10
20929;DHT22;21895;47.072;15.132;2023-07-08T15:51:48;28.30;85.00
20929;DHT22;21895;47.072;15.132;2023-07-08T15:54:17;28.30;85.90
20929;DHT22;21895;47.072;15.132;2023-07-08T15:56:46;28.30;84.70
20929;DHT22;21895;47.072;15.132;2023-07-08T15:59:16;28.30;85.10
20929;DHT22;21895;47.072;15.132;2023-07-08T16:01:47;28.20;85.80
20929;DHT22;21895;47.072;15.132;2023-07-08T16:04:23;28.20;84.90
20929;DHT22;21895;47.072;15.132;2023-07-08T16:06:53;28.20;85.60
20929;DHT22;21895;47.072;15.132;2023-07-08T16:09:19;28.10;84.60
20929;DHT22;21895;47.072;15.132;2023-07-08T16:11:46;28.10;85.30
20929;DHT22;21895;47.072;15.132;2023-07-08T16:14:14;28.10;84.70
20929;DHT22;21895;47.072;15.132;2023-07-08T16:16:43;28.10;84.40